Time;durP1;ratioP1;P1;durP2;ratioP2;P2;SDS_P1;SDS_P2;PMS_P1;PMS_P2;Temp;Humidity;BMP_temperature;BMP_pressure;BME280_temperature;BME280_humidity;BME280_pressure;Samples;Min_cycle;Max_cycle;Signal;HPM_P1;HPM_P2
2023/06/23 00:01:17;;;;;;;2.10;1.30;;;21.70;99.90;;;;;;5013752;28;20026;-38
2023/06/23 00:03:45;;;;;;;2.92;1.80;;;21.70;99.90;;;;;;5013590;28;20123;-39
2023/06/23 00:06:11;;;;;;;2.78;1.65;;;21.70;99.90;;;;;;5013740;28;20104;-38
2023/06/23 00:08:40;;;;;;;1.95;1.50;;;21.70;99.90;;;;;;5013434;28;20033;-39
2023/06/23 00:11:10;;;;;;;3.72;1.60;;;21.70;99.90;;;;;;5013643;28;20045;-38
2023/06/23 00:13:36;;;;;;;2.97;1.70;;;21.70;99.90;;;;;;5013451;28;20033;-38
2023/06/23 00:16:04;;;;;;;2.35;1.40;;;21.70;99.90;;;;;;5013189;28;20389;-41
2023/06/23 00:18:36;;;;;;;1.67;1.40;;;21.70;99.90;;;;;;5013427;28;20532;-39
2023/06/23 00:21:06;;;;;;;2.72;1.60;;;21.70;99.90;;;;;;5012869;28;20037;-39
2023/06/23 00:23:33;;;;;;;2.30;1.50;;;21.70;99.90;;;;;;5013393;28;20064;-38
2023/06/23 00:25:58;;;;;;;3.08;1.50;;;21.60;99.90;;;;;;5012979;28;20029;-39
2023/06/23 00:28:24;;;;;;;2.08;1.30;;;21.70;99.90;;;;;;5013172;28;20018;-38
2023/06/23 00:30:54;;;;;;;1.88;1.30;;;21.70;99.90;;;;;;5013256;28;20105;-40
2023/06/23 00:33:20;;;;;;;1.65;1.42;;;21.70;99.90;;;;;;5013204;28;20032;-40
2023/06/23 00:35:46;;;;;;;2.30;1.33;;;21.70;99.90;;;;;;5012824;28;20382;-41
2023/06/23 00:38:13;;;;;;;1.92;1.58;;;21.60;99.90;;;;;;5012981;28;20099;-40
2023/06/23 00:40:39;;;;;;;2.88;1.30;;;21.60;99.90;;;;;;5012935;28;20053;-38
2023/06/23 00:43:04;;;;;;;1.40;1.20;;;21.70;99.90;;;;;;5013129;28;20477;-39
2023/06/23 00:45:30;;;;;;;2.17;1.20;;;21.70;99.90;;;;;;5012659;28;20033;-39
2023/06/23 00:47:56;;;;;;;2.03;1.35;;;21.60;99.90;;;;;;5012840;28;20105;-37
2023/06/23 00:50:23;;;;;;;1.75;1.40;;;21.60;99.90;;;;;;5011492;28;20029;-39
2023/06/23 00:52:51;;;;;;;1.63;1.50;;;21.60;99.90;;;;;;5012702;28;20030;-40
2023/06/23 00:55:27;;;;;;;1.73;1.30;;;21.60;99.90;;;;;;5012659;28;20244;-41
2023/06/23 00:57:54;;;;;;;3.08;1.50;;;21.60;99.90;;;;;;5012679;28;20032;-39
2023/06/23 01:00:21;;;;;;;2.08;1.40;;;21.60;99.90;;;;;;5012639;28;20026;-39
2023/06/23 01:02:49;;;;;;;1.30;1.20;;;21.60;99.90;;;;;;5012654;28;20030;-39
2023/06/23 01:05:19;;;;;;;2.38;1.30;;;21.60;99.90;;;;;;5012246;28;20084;-37
2023/06/23 01:07:53;;;;;;;1.70;1.20;;;21.60;99.90;;;;;;5012672;28;20041;-36
2023/06/23 01:10:56;;;;;;;1.75;1.20;;;21.60;99.90;;;;;;5012563;28;20030;-36
2023/06/23 01:13:34;;;;;;;1.50;1.10;;;21.60;99.90;;;;;;5012412;28;20018;-39
2023/06/23 01:16:07;;;;;;;1.50;1.30;;;21.60;99.90;;;;;;5012029;28;20433;-37
2023/06/23 01:18:44;;;;;;;1.77;1.30;;;21.60;99.90;;;;;;5012264;28;20025;-39
2023/06/23 01:21:15;;;;;;;1.80;1.40;;;21.60;99.90;;;;;;5012565;28;20116;-39
2023/06/23 01:23:58;;;;;;;1.80;1.48;;;21.60;99.90;;;;;;5012331;28;20080;-38
2023/06/23 01:26:59;;;;;;;1.65;1.50;;;21.60;99.90;;;;;;5011969;28;20025;-39
2023/06/23 01:29:28;;;;;;;1.60;1.20;;;21.60;99.90;;;;;;5012191;28;20045;-39
2023/06/23 01:32:28;;;;;;;1.40;1.30;;;21.60;99.90;;;;;;5011996;28;20531;-39
2023/06/23 01:35:07;;;;;;;2.08;1.40;;;21.60;99.90;;;;;;5011624;28;20029;-39
2023/06/23 01:37:35;;;;;;;2.15;1.95;;;21.60;99.90;;;;;;5011988;28;20029;-38
2023/06/23 01:40:13;;;;;;;1.85;1.50;;;21.50;99.90;;;;;;5011920;28;20045;-39
2023/06/23 01:42:48;;;;;;;2.88;2.03;;;21.50;99.90;;;;;;5011964;28;20097;-38
2023/06/23 01:45:15;;;;;;;2.40;2.05;;;21.50;99.90;;;;;;5011577;28;20021;-38
2023/06/23 01:47:44;;;;;;;2.08;1.88;;;21.50;99.90;;;;;;5011879;28;20022;-39
2023/06/23 01:50:14;;;;;;;2.15;1.58;;;21.50;99.90;;;;;;5011716;28;20096;-39
2023/06/23 01:52:40;;;;;;;2.28;1.30;;;21.50;99.90;;;;;;5011778;28;20396;-38
2023/06/23 01:55:07;;;;;;;2.38;1.85;;;21.50;99.90;;;;;;5011579;28;20014;-38
2023/06/23 01:57:36;;;;;;;6.30;2.30;;;21.50;99.90;;;;;;5011536;28;20108;-36
2023/06/23 02:00:13;;;;;;;2.17;1.80;;;21.50;99.90;;;;;;5011624;28;20026;-36
2023/06/23 02:02:44;;;;;;;3.50;2.08;;;21.50;99.90;;;;;;5011959;28;20022;-36
2023/06/23 02:05:12;;;;;;;2.90;1.95;;;21.50;99.90;;;;;;5011334;28;20393;-39
2023/06/23 02:07:45;;;;;;;2.20;1.80;;;21.50;99.90;;;;;;5011584;28;20421;-38
2023/06/23 02:10:11;;;;;;;2.10;1.75;;;21.50;99.90;;;;;;5046498;23;20022;-40
2023/06/23 02:12:40;;;;;;;2.00;1.80;;;21.50;99.90;;;;;;4991752;28;20053;-37
2023/06/23 02:15:08;;;;;;;2.10;1.73;;;21.50;99.90;;;;;;4991544;28;20034;-38
2023/06/23 02:17:34;;;;;;;2.00;1.80;;;21.50;99.90;;;;;;4991818;28;20026;-38
2023/06/23 02:20:16;;;;;;;2.40;1.70;;;21.50;99.90;;;;;;4991794;28;20030;-39
2023/06/23 02:22:48;;;;;;;2.70;1.83;;;21.50;99.90;;;;;;4991794;28;20060;-38
2023/06/23 02:25:15;;;;;;;1.70;1.48;;;21.50;99.90;;;;;;4991756;28;20022;-38
2023/06/23 02:27:42;;;;;;;2.28;1.60;;;21.50;99.90;;;;;;4991839;28;20022;-39
2023/06/23 02:30:09;;;;;;;1.88;1.67;;;21.50;99.90;;;;;;4991736;28;20050;-37
2023/06/23 02:32:35;;;;;;;1.55;1.30;;;21.50;99.90;;;;;;4991767;28;20037;-40
2023/06/23 02:35:02;;;;;;;1.98;1.52;;;21.50;99.90;;;;;;4991416;28;20026;-37
2023/06/23 02:37:31;;;;;;;2.47;1.40;;;21.50;99.90;;;;;;4991634;28;20477;-38
2023/06/23 02:40:09;;;;;;;1.85;1.60;;;21.50;99.90;;;;;;4991743;28;20022;-38
2023/06/23 02:42:40;;;;;;;2.05;1.70;;;21.50;99.90;;;;;;4991807;28;20059;-38
2023/06/23 02:45:14;;;;;;;1.98;1.75;;;21.40;99.90;;;;;;4993872;28;20033;-37
2023/06/23 02:47:42;;;;;;;3.13;2.15;;;21.40;99.90;;;;;;4995489;28;20063;-39
2023/06/23 02:50:14;;;;;;;2.38;1.60;;;21.40;99.90;;;;;;4995483;28;20109;-38
2023/06/23 02:52:44;;;;;;;2.08;1.60;;;21.40;99.90;;;;;;4995513;28;20029;-39
2023/06/23 02:55:12;;;;;;;1.65;1.30;;;21.40;99.90;;;;;;4995232;28;20536;-39
2023/06/23 02:57:39;;;;;;;2.50;1.90;;;21.40;99.90;;;;;;4995395;28;20030;-38
2023/06/23 03:00:12;;;;;;;4.07;2.00;;;21.40;99.90;;;;;;4995145;28;20020;-37
2023/06/23 03:02:44;;;;;;;2.30;1.92;;;21.40;99.90;;;;;;4995308;28;20496;-39
2023/06/23 03:05:09;;;;;;;2.00;1.52;;;21.40;99.90;;;;;;4995079;28;20027;-37
2023/06/23 03:07:38;;;;;;;2.92;1.83;;;21.40;99.90;;;;;;4995377;28;20050;-38
2023/06/23 03:10:08;;;;;;;1.90;1.63;;;21.40;99.90;;;;;;4994952;28;20018;-38
2023/06/23 03:12:34;;;;;;;1.85;1.67;;;21.40;99.90;;;;;;4995517;28;20029;-39
2023/06/23 03:15:00;;;;;;;2.92;1.85;;;21.40;99.90;;;;;;4994826;28;20022;-38
2023/06/23 03:17:30;;;;;;;2.17;1.98;;;21.40;99.90;;;;;;4994878;28;20381;-38
2023/06/23 03:20:24;;;;;;;3.70;2.10;;;21.40;99.90;;;;;;4995056;28;20076;-38
2023/06/23 03:23:04;;;;;;;2.45;1.90;;;21.40;99.90;;;;;;4993384;28;20034;-38
2023/06/23 03:25:30;;;;;;;2.90;2.03;;;21.40;99.90;;;;;;4994855;28;20462;-38
2023/06/23 03:27:58;;;;;;;2.33;2.10;;;21.40;99.90;;;;;;4994871;28;20437;-38
2023/06/23 03:30:29;;;;;;;2.45;2.25;;;21.40;99.90;;;;;;4994703;28;20030;-39
2023/06/23 03:33:07;;;;;;;1.95;1.75;;;21.40;99.90;;;;;;4994767;28;20050;-38
2023/06/23 03:35:37;;;;;;;2.15;1.92;;;21.40;99.90;;;;;;4994316;28;20026;-38
2023/06/23 03:38:07;;;;;;;3.53;2.58;;;21.40;99.90;;;;;;4994613;28;20038;-37
2023/06/23 03:40:39;;;;;;;2.90;2.28;;;21.40;99.90;;;;;;4994751;28;20034;-36
2023/06/23 03:43:37;;;;;;;2.33;1.70;;;21.40;99.90;;;;;;4994625;28;20041;-37
2023/06/23 03:46:12;;;;;;;2.30;2.10;;;21.40;99.90;;;;;;4971738;28;20042;-39
2023/06/23 03:48:40;;;;;;;2.40;2.20;;;21.40;99.90;;;;;;4994520;28;20037;-41
2023/06/23 03:51:10;;;;;;;3.92;2.25;;;21.40;99.90;;;;;;4994351;28;20085;-38
2023/06/23 03:53:37;;;;;;;2.92;2.15;;;21.40;99.90;;;;;;4994346;28;20454;-36
2023/06/23 03:56:04;;;;;;;3.58;2.30;;;21.40;99.90;;;;;;4993102;28;20041;-39
2023/06/23 03:58:30;;;;;;;3.65;2.42;;;21.40;99.90;;;;;;4994134;28;20037;-37
2023/06/23 04:00:58;;;;;;;2.95;2.50;;;21.40;99.90;;;;;;4992795;28;20088;-37
2023/06/23 04:03:26;;;;;;;3.00;2.58;;;21.30;99.90;;;;;;4994194;28;20388;-36
2023/06/23 04:05:53;;;;;;;4.80;2.70;;;21.30;99.90;;;;;;4993940;28;20053;-38
2023/06/23 04:08:21;;;;;;;3.05;2.67;;;21.40;99.90;;;;;;4994104;28;20091;-39
2023/06/23 04:10:47;;;;;;;3.20;2.65;;;21.30;99.90;;;;;;4993809;28;20031;-38
2023/06/23 04:13:15;;;;;;;3.17;2.63;;;21.30;99.90;;;;;;4993990;28;20034;-38
2023/06/23 04:15:42;;;;;;;3.38;2.75;;;21.30;99.90;;;;;;4993696;28;20349;-39
2023/06/23 04:18:10;;;;;;;2.60;2.30;;;21.30;99.90;;;;;;4992647;28;20121;-38
2023/06/23 04:20:38;;;;;;;3.10;2.42;;;21.30;99.90;;;;;;4993818;28;20053;-38
2023/06/23 04:23:05;;;;;;;3.75;3.03;;;21.30;99.90;;;;;;4993827;28;20366;-38
2023/06/23 04:25:31;;;;;;;3.15;2.85;;;21.30;99.90;;;;;;4993456;28;20547;-37
2023/06/23 04:28:01;;;;;;;2.83;2.22;;;21.30;99.90;;;;;;4993671;28;20054;-37
2023/06/23 04:30:29;;;;;;;3.08;2.78;;;21.30;99.90;;;;;;4993537;28;20065;-38
2023/06/23 04:32:55;;;;;;;3.40;2.70;;;21.30;99.90;;;;;;4993609;28;20496;-37
2023/06/23 04:35:20;;;;;;;5.05;2.83;;;21.30;99.90;;;;;;4993269;28;20069;-40
2023/06/23 04:37:57;;;;;;;3.50;2.80;;;21.30;99.90;;;;;;4993552;28;20109;-40
2023/06/23 04:40:40;;;;;;;4.30;3.17;;;21.30;99.90;;;;;;4993451;28;20033;-38
2023/06/23 04:43:13;;;;;;;4.35;3.17;;;21.30;99.90;;;;;;4992254;28;20113;-40
2023/06/23 04:45:57;;;;;;;4.32;3.25;;;21.30;99.90;;;;;;4993451;28;20022;-38
2023/06/23 04:48:34;;;;;;;3.38;2.78;;;21.30;99.90;;;;;;4993284;28;20389;-39
2023/06/23 04:51:05;;;;;;;5.10;3.00;;;21.30;99.90;;;;;;4993319;28;20037;-37
2023/06/23 04:53:35;;;;;;;6.10;3.05;;;21.30;99.90;;;;;;4993328;28;20026;-36
2023/06/23 04:56:05;;;;;;;4.63;3.53;;;21.30;99.90;;;;;;4993125;28;20054;-36
2023/06/23 04:58:35;;;;;;;6.20;3.47;;;21.30;99.90;;;;;;4993185;28;20022;-39
2023/06/23 05:01:03;;;;;;;3.78;3.08;;;21.30;99.90;;;;;;4992941;28;20026;-39
2023/06/23 05:03:30;;;;;;;4.45;3.38;;;21.30;99.90;;;;;;4993016;28;20504;-38
2023/06/23 05:05:57;;;;;;;3.70;2.95;;;21.30;99.90;;;;;;4992933;28;20036;-40
2023/06/23 05:08:26;;;;;;;5.13;3.67;;;21.30;99.90;;;;;;4992889;28;20092;-39
2023/06/23 05:10:53;;;;;;;4.10;3.70;;;21.30;99.90;;;;;;4992808;28;20050;-38
2023/06/23 05:13:21;;;;;;;7.07;3.40;;;21.30;99.90;;;;;;4992779;28;20424;-36
2023/06/23 05:15:47;;;;;;;5.32;3.80;;;21.30;99.90;;;;;;4992479;28;20222;-37
2023/06/23 05:18:16;;;;;;;4.00;3.38;;;21.30;99.90;;;;;;4992915;28;20034;-37
2023/06/23 05:20:42;;;;;;;8.45;4.03;;;21.30;99.90;;;;;;4992697;28;20014;-37
2023/06/23 05:23:10;;;;;;;7.18;4.18;;;21.30;99.90;;;;;;4992708;28;20034;-38
2023/06/23 05:25:37;;;;;;;5.32;4.28;;;21.30;99.90;;;;;;4992400;28;20037;-37
2023/06/23 05:28:05;;;;;;;5.30;4.38;;;21.30;99.90;;;;;;4992440;28;20127;-38
2023/06/23 05:30:32;;;;;;;6.18;5.13;;;21.30;99.90;;;;;;4992485;28;20116;-37
2023/06/23 05:33:00;;;;;;;6.10;5.50;;;21.30;99.90;;;;;;4992525;28;20054;-38
2023/06/23 05:35:27;;;;;;;7.15;5.55;;;21.30;99.90;;;;;;4992102;28;20109;-38
2023/06/23 05:37:53;;;;;;;6.07;4.85;;;21.30;99.90;;;;;;4992378;28;20033;-40
2023/06/23 05:40:19;;;;;;;7.15;5.55;;;21.30;99.90;;;;;;4992318;28;20364;-37
2023/06/23 05:42:46;;;;;;;6.72;5.70;;;21.30;99.90;;;;;;4992187;28;20030;-39
2023/06/23 05:45:12;;;;;;;6.47;5.20;;;21.30;99.90;;;;;;4992121;28;20504;-38
2023/06/23 05:47:43;;;;;;;6.28;5.10;;;21.30;99.90;;;;;;4992263;28;20034;-37
2023/06/23 05:50:18;;;;;;;5.85;4.38;;;21.30;99.90;;;;;;4992574;28;20019;-37
2023/06/23 05:52:52;;;;;;;5.80;5.05;;;21.30;99.90;;;;;;4992240;28;20389;-37
2023/06/23 05:55:20;;;;;;;7.90;6.07;;;21.30;99.90;;;;;;4991924;28;20022;-38
2023/06/23 05:57:49;;;;;;;6.65;5.15;;;21.30;99.90;;;;;;4992139;28;20030;-39
2023/06/23 06:00:18;;;;;;;6.80;5.32;;;21.30;99.90;;;;;;4992036;28;20069;-36
2023/06/23 06:02:48;;;;;;;6.13;5.00;;;21.30;99.90;;;;;;4992066;28;20030;-37
2023/06/23 06:05:17;;;;;;;7.50;5.75;;;21.30;99.90;;;;;;4991836;28;20109;-38
2023/06/23 06:07:45;;;;;;;7.63;6.10;;;21.30;99.90;;;;;;4991955;28;20018;-37
2023/06/23 06:10:12;;;;;;;9.43;5.85;;;21.30;99.90;;;;;;4992060;28;20027;-37
2023/06/23 06:12:38;;;;;;;9.07;6.30;;;21.30;99.90;;;;;;4992008;28;20022;-38
2023/06/23 06:15:06;;;;;;;7.95;6.22;;;21.30;99.90;;;;;;4991729;28;20477;-39
2023/06/23 06:17:33;;;;;;;8.85;6.95;;;21.30;99.90;;;;;;4991766;28;20481;-38
2023/06/23 06:20:04;;;;;;;8.82;7.03;;;21.30;99.90;;;;;;4991178;28;20073;-39
2023/06/23 06:22:32;;;;;;;7.40;6.40;;;21.30;99.90;;;;;;4992161;28;20378;-38
2023/06/23 06:24:59;;;;;;;8.48;6.88;;;21.30;99.90;;;;;;4991645;28;20045;-38
2023/06/23 06:27:28;;;;;;;7.35;6.13;;;21.30;99.90;;;;;;4991752;28;20042;-38
2023/06/23 06:29:56;;;;;;;6.60;5.90;;;21.30;99.90;;;;;;4991698;28;20023;-37
2023/06/23 06:32:23;;;;;;;9.18;6.55;;;21.30;99.90;;;;;;4991736;28;20022;-39
2023/06/23 06:34:50;;;;;;;8.82;6.00;;;21.30;99.90;;;;;;4991587;28;20272;-38
2023/06/23 06:37:16;;;;;;;8.18;6.80;;;21.30;99.90;;;;;;4991621;28;20026;-38
2023/06/23 06:39:44;;;;;;;8.77;6.88;;;21.30;99.90;;;;;;4991740;28;20030;-37
2023/06/23 06:42:10;;;;;;;8.77;6.50;;;21.30;99.90;;;;;;4991585;28;20054;-38
2023/06/23 06:44:36;;;;;;;7.60;5.50;;;21.30;99.90;;;;;;4991618;28;20054;-39
2023/06/23 06:47:04;;;;;;;7.72;6.60;;;21.30;99.90;;;;;;4991376;28;20502;-38
2023/06/23 06:49:31;;;;;;;8.35;6.13;;;21.30;99.90;;;;;;4991632;28;20030;-39
2023/06/23 06:51:59;;;;;;;6.90;5.78;;;21.30;99.90;;;;;;4991540;28;20034;-37
2023/06/23 06:54:26;;;;;;;7.63;6.10;;;21.30;99.90;;;;;;4990238;28;20054;-38
2023/06/23 06:56:57;;;;;;;9.02;5.95;;;21.30;99.90;;;;;;4991169;28;20027;-39
2023/06/23 06:59:23;;;;;;;8.30;6.57;;;21.30;99.90;;;;;;4991530;28;20469;-38
2023/06/23 07:01:49;;;;;;;10.40;7.30;;;21.30;99.90;;;;;;4991321;28;20077;-39
2023/06/23 07:04:15;;;;;;;16.13;11.38;;;21.30;99.90;;;;;;4991699;28;20023;-38
2023/06/23 07:06:41;;;;;;;16.85;11.15;;;21.30;99.90;;;;;;4991474;28;20049;-37
2023/06/23 07:09:07;;;;;;;15.43;10.77;;;21.20;99.90;;;;;;4991562;28;20481;-38
2023/06/23 07:11:33;;;;;;;16.30;10.40;;;21.20;99.90;;;;;;4991619;28;20044;-37
2023/06/23 07:13:59;;;;;;;12.88;9.63;;;21.20;99.90;;;;;;4991438;28;20034;-36
2023/06/23 07:16:30;;;;;;;13.48;8.75;;;21.20;99.90;;;;;;4991201;28;20841;-36
2023/06/23 07:18:56;;;;;;;11.05;8.10;;;21.20;99.90;;;;;;4991454;28;20481;-37
2023/06/23 07:21:22;;;;;;;10.68;7.57;;;21.30;99.90;;;;;;4991312;28;20552;-36
2023/06/23 07:23:48;;;;;;;9.43;7.53;;;21.30;99.90;;;;;;4991346;28;20030;-36
2023/06/23 07:26:13;;;;;;;8.77;7.05;;;21.30;99.90;;;;;;4991066;28;20557;-37
2023/06/23 07:28:39;;;;;;;8.02;6.90;;;21.30;99.90;;;;;;4991203;28;20432;-37
2023/06/23 07:31:05;;;;;;;9.88;7.07;;;21.30;99.90;;;;;;4991803;28;20587;-38
2023/06/23 07:33:30;;;;;;;8.82;6.22;;;21.30;99.90;;;;;;4994742;28;20113;-38
2023/06/23 07:35:56;;;;;;;7.70;6.78;;;21.30;99.90;;;;;;4994675;28;20031;-36
2023/06/23 07:38:22;;;;;;;9.43;6.25;;;21.30;99.90;;;;;;4994679;28;20027;-37
2023/06/23 07:40:47;;;;;;;12.80;5.68;;;21.30;99.90;;;;;;4994539;28;20027;-39
2023/06/23 07:43:13;;;;;;;7.80;5.60;;;21.30;99.90;;;;;;4994544;28;20390;-36
2023/06/23 07:45:39;;;;;;;7.45;5.90;;;21.40;99.90;;;;;;4994293;28;20089;-37
2023/06/23 07:48:05;;;;;;;6.70;5.70;;;21.40;99.90;;;;;;4994684;28;20030;-37
2023/06/23 07:50:30;;;;;;;10.43;7.97;;;21.30;99.90;;;;;;4994261;28;20030;-36
2023/06/23 07:52:56;;;;;;;10.05;8.02;;;21.40;99.90;;;;;;4994414;28;20038;-38
2023/06/23 07:55:22;;;;;;;12.18;8.07;;;21.40;99.90;;;;;;4994234;28;20037;-36
2023/06/23 07:57:48;;;;;;;10.20;7.20;;;21.40;99.90;;;;;;4994298;28;20023;-38
2023/06/23 08:00:15;;;;;;;11.27;7.72;;;21.40;99.90;;;;;;4994175;28;20106;-37
2023/06/23 08:02:41;;;;;;;13.45;7.80;;;21.40;99.90;;;;;;4994293;28;20054;-39
2023/06/23 08:05:08;;;;;;;8.32;6.63;;;21.40;99.90;;;;;;4993983;28;20026;-39
2023/06/23 08:07:33;;;;;;;11.18;6.82;;;21.40;99.90;;;;;;4994231;28;20031;-36
2023/06/23 08:09:59;;;;;;;11.57;6.20;;;21.40;99.90;;;;;;4993947;28;20026;-35
2023/06/23 08:12:25;;;;;;;11.52;6.45;;;21.40;99.90;;;;;;5014480;23;20047;-39
2023/06/23 08:14:50;;;;;;;8.40;5.90;;;21.40;99.90;;;;;;4993388;28;20022;-36
2023/06/23 08:17:17;;;;;;;8.65;5.20;;;21.40;99.90;;;;;;4993959;28;20053;-41
2023/06/23 08:19:43;;;;;;;6.85;5.40;;;21.40;99.90;;;;;;4995186;28;20038;-37
2023/06/23 08:22:09;;;;;;;8.88;5.55;;;21.40;99.90;;;;;;4994779;28;20611;-42
2023/06/23 08:24:35;;;;;;;7.10;5.55;;;21.40;99.90;;;;;;4994513;28;20404;-38
2023/06/23 08:27:01;;;;;;;6.47;5.10;;;21.40;99.90;;;;;;4995092;28;20015;-35
2023/06/23 08:29:27;;;;;;;7.10;5.10;;;21.50;99.90;;;;;;4994911;28;20022;-39
2023/06/23 08:31:52;;;;;;;7.85;4.70;;;21.50;99.90;;;;;;4993902;28;20520;-37
2023/06/23 08:34:18;;;;;;;7.45;4.78;;;21.50;99.90;;;;;;4994558;28;20058;-35
2023/06/23 08:36:45;;;;;;;8.30;4.55;;;21.40;99.90;;;;;;4994009;28;20038;-37
2023/06/23 08:39:10;;;;;;;6.05;4.57;;;21.50;99.90;;;;;;4993508;28;20018;-39
2023/06/23 08:41:42;;;;;;;5.22;4.72;;;21.50;99.90;;;;;;4993301;28;20029;-38
2023/06/23 08:44:13;;;;;;;6.45;5.03;;;21.50;99.90;;;;;;4993420;28;20033;-38
2023/06/23 08:46:41;;;;;;;5.45;4.32;;;21.50;99.90;;;;;;4993764;28;20453;-39
2023/06/23 08:49:13;;;;;;;5.70;4.40;;;21.50;99.90;;;;;;4993536;28;20068;-39
2023/06/23 08:51:40;;;;;;;6.15;4.90;;;21.50;99.90;;;;;;4994323;28;20026;-39
2023/06/23 08:54:05;;;;;;;7.07;4.38;;;21.50;99.90;;;;;;4993257;28;20382;-39
2023/06/23 08:56:32;;;;;;;5.07;4.20;;;21.50;99.90;;;;;;4993022;28;20032;-38
2023/06/23 08:58:58;;;;;;;6.05;4.70;;;21.50;99.90;;;;;;4993088;28;20524;-36
2023/06/23 09:01:23;;;;;;;5.55;4.35;;;21.50;99.90;;;;;;4993046;28;20101;-36
2023/06/23 09:03:50;;;;;;;5.72;4.30;;;21.50;99.90;;;;;;4993055;28;20025;-39
2023/06/23 09:06:16;;;;;;;7.15;4.95;;;21.60;99.90;;;;;;4992840;28;20041;-39
2023/06/23 09:08:42;;;;;;;8.70;4.68;;;21.50;99.90;;;;;;4993531;28;20026;-37
2023/06/23 09:11:07;;;;;;;6.97;4.50;;;21.60;99.90;;;;;;4992758;28;20045;-38
2023/06/23 09:13:38;;;;;;;7.93;4.45;;;21.60;99.90;;;;;;4992739;28;20053;-35
2023/06/23 09:16:04;;;;;;;5.15;3.60;;;21.60;99.90;;;;;;4992579;28;20037;-39
2023/06/23 09:18:32;;;;;;;6.53;4.35;;;21.60;99.90;;;;;;4994860;28;20026;-39
2023/06/23 09:21:01;;;;;;;4.38;3.97;;;21.60;99.90;;;;;;4992721;28;20026;-38
2023/06/23 09:23:30;;;;;;;6.10;4.10;;;21.60;99.90;;;;;;4992921;28;20030;-38
2023/06/23 09:25:56;;;;;;;5.07;4.28;;;21.50;99.90;;;;;;4991022;28;20375;-35
2023/06/23 09:28:36;;;;;;;8.65;4.38;;;21.60;99.90;;;;;;4993069;28;20049;-39
2023/06/23 09:31:12;;;;;;;9.60;4.88;;;21.50;99.90;;;;;;4992533;28;20034;-37
2023/06/23 09:33:53;;;;;;;4.95;3.90;;;21.60;99.90;;;;;;4992815;28;20420;-38
2023/06/23 09:36:19;;;;;;;4.75;4.20;;;21.60;99.90;;;;;;4992312;28;20030;-37
2023/06/23 09:38:45;;;;;;;4.57;3.90;;;21.60;99.90;;;;;;4992664;28;20540;-39
2023/06/23 09:41:13;;;;;;;5.93;4.30;;;21.60;99.90;;;;;;4992512;28;20027;-37
2023/06/23 09:43:46;;;;;;;5.85;3.60;;;21.60;99.90;;;;;;4992652;28;20034;-40
2023/06/23 09:46:13;;;;;;;6.13;4.03;;;21.60;99.90;;;;;;4992284;28;20030;-36
2023/06/23 09:48:40;;;;;;;5.28;4.00;;;21.60;99.90;;;;;;4992234;28;20027;-39
2023/06/23 09:51:06;;;;;;;4.35;3.95;;;21.60;99.90;;;;;;4992320;28;20049;-37
2023/06/23 09:53:37;;;;;;;5.18;3.92;;;21.60;99.90;;;;;;4991827;28;20030;-39
2023/06/23 09:56:04;;;;;;;5.15;3.88;;;21.60;99.90;;;;;;4992084;28;20065;-36
2023/06/23 09:58:32;;;;;;;6.63;4.38;;;21.60;99.90;;;;;;4991625;28;20018;-35
2023/06/23 10:01:02;;;;;;;3.67;3.25;;;21.70;99.90;;;;;;4992034;28;20038;-37
2023/06/23 10:03:31;;;;;;;4.72;4.18;;;21.60;99.90;;;;;;4991972;28;20022;-39
2023/06/23 10:05:58;;;;;;;5.82;3.75;;;21.60;99.90;;;;;;4991864;28;20409;-39
2023/06/23 10:08:26;;;;;;;3.97;3.55;;;21.70;99.90;;;;;;4991952;28;20038;-38
2023/06/23 10:10:52;;;;;;;4.05;3.60;;;21.70;99.90;;;;;;4991789;28;20030;-39
2023/06/23 10:13:17;;;;;;;5.18;3.60;;;21.70;99.90;;;;;;4992048;28;20034;-39
2023/06/23 10:15:44;;;;;;;9.55;6.07;;;21.60;99.90;;;;;;4991834;28;21932;-36
2023/06/23 10:18:11;;;;;;;11.57;6.18;;;21.70;99.90;;;;;;4992031;28;20023;-45
2023/06/23 10:20:38;;;;;;;8.68;7.30;;;21.80;99.90;;;;;;4991821;28;20023;-42
2023/06/23 10:23:04;;;;;;;11.13;6.28;;;21.80;99.90;;;;;;4993103;28;20021;-40
2023/06/23 10:25:34;;;;;;;11.55;4.97;;;21.80;99.90;;;;;;4991639;28;20032;-40
2023/06/23 10:28:06;;;;;;;5.10;4.13;;;21.80;99.90;;;;;;4991859;28;20027;-39
2023/06/23 10:30:32;;;;;;;8.38;3.95;;;21.80;99.90;;;;;;4991720;28;20033;-42
2023/06/23 10:32:59;;;;;;;4.97;3.90;;;21.70;99.90;;;;;;4991624;28;20023;-36
2023/06/23 10:35:25;;;;;;;6.63;4.03;;;21.80;99.90;;;;;;4991506;28;20386;-39
2023/06/23 10:38:06;;;;;;;5.28;3.50;;;21.80;99.90;;;;;;4992898;28;20033;-39
2023/06/23 10:40:39;;;;;;;5.43;3.90;;;21.80;99.90;;;;;;4992439;28;20022;-39
2023/06/23 10:43:06;;;;;;;3.83;3.30;;;21.70;99.90;;;;;;4991560;28;20023;-41
2023/06/23 10:45:32;;;;;;;5.28;3.20;;;21.80;99.90;;;;;;4991460;28;20493;-38
2023/06/23 10:47:59;;;;;;;5.72;3.10;;;21.80;99.90;;;;;;4991994;28;20378;-40
2023/06/23 10:50:29;;;;;;;5.45;3.78;;;21.80;99.90;;;;;;4991991;28;20026;-39
2023/06/23 10:52:56;;;;;;;5.68;3.45;;;21.80;99.90;;;;;;4991619;28;20323;-43
2023/06/23 10:55:39;;;;;;;3.88;3.30;;;21.80;99.90;;;;;;4992603;28;20105;-40
2023/06/23 10:58:11;;;;;;;3.97;3.30;;;21.80;99.90;;;;;;4993068;28;20432;-39
2023/06/23 11:00:37;;;;;;;4.85;3.10;;;21.80;99.90;;;;;;4991851;28;20026;-39
2023/06/23 11:03:08;;;;;;;3.92;3.38;;;21.80;99.90;;;;;;4991475;28;20108;-40
2023/06/23 11:05:35;;;;;;;4.00;3.42;;;21.80;99.90;;;;;;4992964;28;20493;-40
2023/06/23 11:08:07;;;;;;;3.42;3.10;;;21.80;99.90;;;;;;4995367;28;20023;-40
2023/06/23 11:10:59;;;;;;;5.13;3.47;;;21.80;99.90;;;;;;4995856;28;20350;-40
2023/06/23 11:13:44;;;;;;;4.65;3.17;;;21.80;99.90;;;;;;4989459;28;20524;-39
2023/06/23 11:16:18;;;;;;;6.15;4.32;;;21.80;99.90;;;;;;4995243;28;20037;-38
2023/06/23 11:18:51;;;;;;;7.22;4.20;;;21.90;99.90;;;;;;4995075;28;20031;-37
2023/06/23 11:21:19;;;;;;;10.02;3.90;;;21.90;99.90;;;;;;4995239;28;20022;-38
2023/06/23 11:24:17;;;;;;;4.85;3.20;;;22.00;99.90;;;;;;4994913;28;20425;-39
2023/06/23 11:26:49;;;;;;;5.82;3.25;;;22.00;99.90;;;;;;4994560;28;20042;-40
2023/06/23 11:29:17;;;;;;;4.28;3.20;;;22.00;99.90;;;;;;4994976;28;20489;-38
2023/06/23 11:32:06;;;;;;;5.13;3.38;;;22.00;99.90;;;;;;4995191;28;20030;-40
2023/06/23 11:35:01;;;;;;;6.05;3.08;;;21.90;99.90;;;;;;4995105;28;20022;-40
2023/06/23 11:37:31;;;;;;;4.53;3.70;;;21.90;99.90;;;;;;4994961;28;20026;-40
2023/06/23 11:39:57;;;;;;;4.90;3.58;;;22.00;99.90;;;;;;4995326;28;20054;-38
2023/06/23 11:42:24;;;;;;;7.07;4.30;;;22.00;99.90;;;;;;4995256;28;20026;-42
2023/06/23 11:44:50;;;;;;;6.32;3.85;;;22.00;99.90;;;;;;4994682;28;20027;-38
2023/06/23 11:47:22;;;;;;;5.93;3.50;;;22.00;99.90;;;;;;4995401;28;20504;-39
2023/06/23 11:49:47;;;;;;;7.90;3.58;;;22.00;99.90;;;;;;4994555;28;20022;-39
2023/06/23 11:52:13;;;;;;;5.97;3.90;;;21.90;99.90;;;;;;4994568;28;20042;-39
2023/06/23 11:54:40;;;;;;;5.40;3.42;;;22.00;99.90;;;;;;4994314;28;20026;-38
2023/06/23 11:57:06;;;;;;;5.70;3.58;;;22.00;99.90;;;;;;4994220;28;20061;-36
2023/06/23 11:59:39;;;;;;;5.22;3.80;;;22.00;99.90;;;;;;4994318;28;20046;-38
2023/06/23 12:02:05;;;;;;;4.43;3.40;;;22.00;99.90;;;;;;4994105;28;20022;-38
2023/06/23 12:04:35;;;;;;;4.82;3.20;;;22.00;99.90;;;;;;4994231;28;20084;-38
2023/06/23 12:07:01;;;;;;;4.38;3.42;;;22.00;99.90;;;;;;4993703;28;20672;-38
2023/06/23 12:09:27;;;;;;;3.60;3.30;;;22.00;99.90;;;;;;4994159;28;20404;-38
2023/06/23 12:11:54;;;;;;;6.00;3.47;;;22.00;99.90;;;;;;4993885;28;20042;-39
2023/06/23 12:14:31;;;;;;;4.55;3.47;;;22.00;99.90;;;;;;4994064;28;20397;-36
2023/06/23 12:17:04;;;;;;;4.28;3.25;;;22.00;99.90;;;;;;4993376;28;20511;-38
2023/06/23 12:19:34;;;;;;;4.72;3.67;;;22.00;99.90;;;;;;4994528;28;20109;-41
2023/06/23 12:22:01;;;;;;;4.50;3.50;;;21.90;99.90;;;;;;4993988;28;20437;-40
2023/06/23 12:24:32;;;;;;;6.13;3.70;;;21.90;99.90;;;;;;4993815;28;20046;-38
2023/06/23 12:27:01;;;;;;;6.32;3.97;;;22.00;99.90;;;;;;4993678;28;20054;-37
2023/06/23 12:29:31;;;;;;;6.00;3.85;;;22.00;99.90;;;;;;4994539;28;20110;-36
2023/06/23 12:31:58;;;;;;;5.30;3.90;;;22.10;99.90;;;;;;4994480;28;20026;-38
2023/06/23 12:34:34;;;;;;;9.65;3.95;;;22.10;99.90;;;;;;4993976;28;20429;-38
2023/06/23 12:37:10;;;;;;;4.13;3.55;;;22.10;99.90;;;;;;4994536;28;20077;-38
2023/06/23 12:39:35;;;;;;;4.53;3.65;;;22.10;99.90;;;;;;4993672;28;20101;-37
2023/06/23 12:42:02;;;;;;;4.68;3.38;;;22.10;99.90;;;;;;4993446;28;20114;-38
2023/06/23 12:44:31;;;;;;;8.15;3.60;;;22.10;99.90;;;;;;4993874;28;20022;-38
2023/06/23 12:46:57;;;;;;;5.25;3.42;;;22.10;99.90;;;;;;4993566;28;20046;-38
2023/06/23 12:49:33;;;;;;;3.33;3.03;;;22.10;99.90;;;;;;4993483;28;20113;-38
2023/06/23 12:52:02;;;;;;;4.18;3.00;;;22.10;99.90;;;;;;4993222;28;20389;-36
2023/06/23 12:54:28;;;;;;;5.78;3.38;;;22.10;99.90;;;;;;4993244;28;20347;-37
2023/06/23 12:56:59;;;;;;;5.80;3.50;;;22.10;99.90;;;;;;4993199;28;20049;-38